createdAt,value
2022-10-17T00:01:20.359Z,101380.00
2022-10-17T00:03:48.969Z,101379.09
2022-10-17T00:06:17.647Z,101378.19
2022-10-17T00:08:46.284Z,101379.00
2022-10-17T00:11:18.692Z,101389.66
2022-10-17T00:13:48.388Z,101386.06
2022-10-17T00:16:24.895Z,101392.28
2022-10-17T00:18:53.580Z,101394.09
2022-10-17T00:21:22.739Z,101396.00
2022-10-17T00:23:51.604Z,101399.69
2022-10-17T00:26:20.854Z,101391.78
2022-10-17T00:28:50.850Z,101391.78
2022-10-17T00:31:22.890Z,101397.19
2022-10-17T00:33:52.360Z,101397.19
2022-10-17T00:36:24.228Z,101402.44
2022-10-17T00:38:55.352Z,101365.53
2022-10-17T00:41:27.748Z,101394.25
2022-10-17T00:43:59.994Z,101392.41
2022-10-17T00:46:32.711Z,101373.06
2022-10-17T00:49:07.828Z,101401.13
2022-10-17T00:51:44.311Z,101378.25
2022-10-17T00:54:15.910Z,101404.72
2022-10-17T00:56:45.182Z,101411.06
2022-10-17T00:59:16.229Z,101396.50
2022-10-17T01:01:57.824Z,101416.81
2022-10-17T01:04:28.686Z,101408.16
2022-10-17T01:06:57.879Z,101401.22
2022-10-17T01:09:27.671Z,101397.78
2022-10-17T01:12:02.655Z,101392.59
2022-10-17T01:14:43.438Z,101390.91
2022-10-17T01:17:21.874Z,101393.56
2022-10-17T01:20:23.883Z,101389.13
2022-10-17T01:23:06.442Z,101363.13
2022-10-17T01:25:55.690Z,101402.59
2022-10-17T01:28:53.683Z,101406.22
2022-10-17T01:31:27.146Z,101410.78
2022-10-17T01:34:04.907Z,101400.25
2022-10-17T01:36:45.848Z,101377.44
2022-10-17T01:39:29.387Z,101379.94
2022-10-17T01:42:09.343Z,101388.91
2022-10-17T01:44:45.819Z,101386.28
2022-10-17T01:47:21.695Z,101385.41
2022-10-17T01:49:53.124Z,101383.69
2022-10-17T01:52:25.987Z,101381.09
2022-10-17T01:55:00.317Z,101391.72
2022-10-17T01:57:33.181Z,101344.47
2022-10-17T02:00:04.566Z,101393.66
2022-10-17T02:02:44.961Z,101388.34
2022-10-17T02:05:13.661Z,101389.25
2022-10-17T02:07:43.155Z,101391.09
2022-10-17T02:10:20.792Z,101392.94
2022-10-17T02:12:59.372Z,101389.41
2022-10-17T02:15:53.350Z,101368.47
2022-10-17T02:18:45.397Z,101393.09
2022-10-17T02:21:19.965Z,101393.13
2022-10-17T02:23:57.033Z,101397.53
2022-10-17T02:26:33.764Z,101379.97
2022-10-17T02:29:11.035Z,101334.44
2022-10-17T02:31:45.039Z,101384.28
2022-10-17T02:34:21.223Z,101366.84
2022-10-17T02:36:55.179Z,101372.19
2022-10-17T02:39:26.167Z,101389.69
2022-10-17T02:41:59.149Z,101388.84
2022-10-17T02:44:29.714Z,101384.44
2022-10-17T02:47:10.015Z,101380.91
2022-10-17T02:49:48.274Z,101287.19
2022-10-17T02:52:25.845Z,101367.03
2022-10-17T02:55:01.061Z,101391.63
2022-10-17T02:57:37.976Z,101379.38
2022-10-17T03:00:12.120Z,101388.13
2022-10-17T03:02:43.763Z,101385.53
2022-10-17T03:05:18.980Z,101381.94
2022-10-17T03:07:47.786Z,101375.75
2022-10-17T03:10:16.624Z,101378.47
2022-10-17T03:12:45.116Z,101380.25
2022-10-17T03:15:14.855Z,101380.16
2022-10-17T03:20:19.662Z,101377.50
2022-10-17T03:22:48.325Z,101376.59
2022-10-17T03:25:17.113Z,101380.16
2022-10-17T03:27:45.433Z,101377.47
2022-10-17T03:30:14.551Z,101378.41
2022-10-17T03:32:42.902Z,101377.50
2022-10-17T03:35:14.781Z,101372.19
2022-10-17T03:37:48.062Z,101366.84
2022-10-17T03:40:17.877Z,101375.66
2022-10-17T03:42:46.526Z,101370.38
2022-10-17T03:45:15.221Z,101375.66
2022-10-17T03:47:44.403Z,101381.00
2022-10-17T03:50:13.015Z,101384.44
2022-10-17T03:52:42.507Z,101385.31
2022-10-17T03:55:12.673Z,101381.72
2022-10-17T03:57:43.421Z,101378.19
2022-10-17T04:00:15.737Z,101383.56
2022-10-17T04:02:44.975Z,101388.88
2022-10-17T04:05:19.731Z,101395.94
2022-10-17T04:07:49.381Z,101392.41
2022-10-17T04:10:22.569Z,101391.50
2022-10-17T04:12:51.436Z,101394.16
2022-10-17T04:15:20.179Z,101383.53
2022-10-17T04:17:49.292Z,101394.19
2022-10-17T04:20:18.697Z,101388.94
2022-10-17T04:22:47.402Z,101389.75
2022-10-17T04:25:18.294Z,101388.97
2022-10-17T04:27:50.128Z,101381.06
2022-10-17T04:30:19.078Z,101298.75
2022-10-17T04:32:48.214Z,101381.06
2022-10-17T04:35:22.667Z,101392.63
2022-10-17T04:37:58.637Z,101392.66
2022-10-17T04:40:27.287Z,101390.00
2022-10-17T04:42:57.311Z,101390.84
2022-10-17T04:45:33.802Z,101387.34
2022-10-17T04:48:05.277Z,101389.91
2022-10-17T04:50:34.108Z,101389.00
2022-10-17T04:53:28.009Z,101383.69
2022-10-17T04:55:57.379Z,101391.66
2022-10-17T04:58:30.831Z,101308.47
2022-10-17T05:00:59.786Z,101393.44
2022-10-17T05:03:30.942Z,101389.00
2022-10-17T05:06:00.351Z,101395.22
2022-10-17T05:08:29.009Z,101394.34
2022-10-17T05:13:27.798Z,101392.66
2022-10-17T05:16:00.871Z,101389.97
2022-10-17T05:18:29.799Z,101384.59
2022-10-17T05:20:58.739Z,101390.84
2022-10-17T05:23:30.542Z,101395.28
2022-10-17T05:25:59.287Z,101391.69
2022-10-17T05:28:30.583Z,101395.13
2022-10-17T05:31:04.879Z,101393.25
2022-10-17T05:33:34.629Z,101396.81
2022-10-17T05:36:03.930Z,101394.13
2022-10-17T05:38:32.571Z,101402.09
2022-10-17T05:41:02.383Z,101404.75
2022-10-17T05:43:35.234Z,101406.44
2022-10-17T05:46:06.520Z,101401.06
2022-10-17T05:48:35.787Z,101403.59
2022-10-17T05:51:07.830Z,101412.47
2022-10-17T05:53:40.294Z,101415.91
2022-10-17T05:56:14.859Z,101421.13
2022-10-17T05:58:50.279Z,101416.63
2022-10-17T06:01:40.645Z,101428.06
2022-10-17T06:04:09.392Z,101433.31
2022-10-17T06:06:39.996Z,101434.13
2022-10-17T06:09:09.969Z,101434.00
2022-10-17T06:11:41.705Z,101437.47
2022-10-17T06:14:11.756Z,101434.69
2022-10-17T06:16:43.459Z,101441.59
2022-10-17T06:19:12.607Z,101443.22
2022-10-17T06:21:41.911Z,101451.00
2022-10-17T06:24:21.931Z,101456.19
2022-10-17T06:26:53.354Z,101460.44
2022-10-17T06:29:24.642Z,101455.00
2022-10-17T06:31:54.077Z,101453.13
2022-10-17T06:34:22.919Z,101457.50
2022-10-17T06:36:51.826Z,101455.63
2022-10-17T06:39:21.445Z,101459.91
2022-10-17T06:42:05.833Z,101340.69
2022-10-17T06:45:02.203Z,101467.56
2022-10-17T06:47:49.370Z,101467.47
2022-10-17T06:50:36.528Z,101469.13
2022-10-17T06:53:22.022Z,101477.91
2022-10-17T06:56:11.362Z,101481.25
2022-10-17T06:58:50.851Z,101492.69
2022-10-17T07:01:37.426Z,101484.59
2022-10-17T07:04:06.745Z,101488.84
2022-10-17T07:06:35.803Z,101491.34
2022-10-17T07:09:10.714Z,101482.56
2022-10-17T07:11:40.201Z,101496.31
2022-10-17T07:14:08.840Z,101493.44
2022-10-17T07:16:39.011Z,101502.13
2022-10-17T07:19:17.102Z,101495.91
2022-10-17T07:21:45.840Z,101507.94
2022-10-17T07:24:14.820Z,101501.56
2022-10-17T07:26:47.781Z,101513.66
2022-10-17T07:29:16.647Z,101506.34
2022-10-17T07:31:52.092Z,101511.47
2022-10-17T07:34:20.930Z,101508.59
2022-10-17T07:36:49.483Z,101509.28
2022-10-17T07:39:18.374Z,101507.34
2022-10-17T07:41:47.645Z,101503.56
2022-10-17T07:44:16.355Z,101513.16
2022-10-17T07:46:48.492Z,101515.53
2022-10-17T07:49:19.604Z,101518.78
2022-10-17T07:51:50.130Z,101516.59
2022-10-17T07:54:18.942Z,101512.56
2022-10-17T07:56:50.607Z,101520.03
2022-10-17T07:59:19.647Z,101508.13
2022-10-17T08:01:48.431Z,101519.72
2022-10-17T08:04:18.427Z,101524.50
2022-10-17T08:06:47.050Z,101513.19
2022-10-17T08:09:15.739Z,101510.94
2022-10-17T08:11:44.885Z,101506.69
2022-10-17T08:14:13.878Z,101507.69
2022-10-17T08:16:42.501Z,101509.63
2022-10-17T08:19:13.079Z,101512.56
2022-10-17T08:21:44.886Z,101503.84
2022-10-17T08:24:13.528Z,101512.34
2022-10-17T08:26:43.983Z,101508.53
2022-10-17T08:29:15.532Z,101514.91
2022-10-17T08:31:47.710Z,101518.63
2022-10-17T08:34:17.417Z,101510.03
2022-10-17T08:36:47.322Z,101515.38
2022-10-17T08:39:15.955Z,101517.13
2022-10-17T08:41:55.257Z,101517.13
2022-10-17T08:44:39.031Z,101517.03
2022-10-17T08:47:14.512Z,101513.16
2022-10-17T08:49:51.451Z,101511.94
2022-10-17T08:52:33.405Z,101516.66
2022-10-17T08:55:02.096Z,101530.38
2022-10-17T08:57:31.047Z,101527.75
2022-10-17T08:59:59.958Z,101516.50
2022-10-17T09:02:51.405Z,101526.44
2022-10-17T09:05:35.999Z,101525.78
2022-10-17T09:08:17.675Z,101526.16
2022-10-17T09:10:58.468Z,101521.25
2022-10-17T09:13:41.409Z,101519.31
2022-10-17T09:16:24.705Z,101515.63
2022-10-17T09:19:02.395Z,101529.25
2022-10-17T09:21:40.694Z,101521.88
2022-10-17T09:24:17.182Z,101523.56
2022-10-17T09:26:47.788Z,101524.22
2022-10-17T09:29:24.452Z,101517.50
2022-10-17T09:31:59.598Z,101529.28
2022-10-17T09:34:30.360Z,101526.78
2022-10-17T09:37:01.148Z,101525.03
2022-10-17T09:39:32.086Z,101523.22
2022-10-17T09:42:02.577Z,101537.34
2022-10-17T09:44:34.997Z,101496.06
2022-10-17T09:47:23.859Z,101529.78
2022-10-17T09:49:52.917Z,101466.47
2022-10-17T09:52:26.760Z,101511.53
2022-10-17T09:55:01.074Z,101529.06
2022-10-17T09:57:30.168Z,101533.44
2022-10-17T10:00:01.682Z,101533.31
2022-10-17T10:02:33.519Z,101526.13
2022-10-17T10:05:06.746Z,101532.97
2022-10-17T10:07:38.311Z,101529.94
2022-10-17T10:10:26.235Z,101535.09
2022-10-17T10:13:08.803Z,101531.13
2022-10-17T10:15:41.350Z,101532.41
2022-10-17T10:21:10.903Z,101531.94
2022-10-17T10:23:41.132Z,101543.38
2022-10-17T10:26:30.964Z,101536.63
2022-10-17T10:29:04.461Z,101541.72
2022-10-17T10:31:36.710Z,101536.72
2022-10-17T10:34:17.076Z,101535.19
2022-10-17T10:36:50.085Z,101527.50
2022-10-17T10:39:33.130Z,101521.72
2022-10-17T10:42:04.219Z,101515.41
2022-10-17T10:44:34.842Z,101511.03
2022-10-17T10:47:23.651Z,101514.91
2022-10-17T10:49:55.159Z,101515.16
2022-10-17T10:52:33.972Z,101514.34
2022-10-17T10:55:16.083Z,101512.66
2022-10-17T10:57:48.599Z,101511.78
2022-10-17T11:00:21.763Z,101513.59
2022-10-17T11:02:58.467Z,101515.28
2022-10-17T11:05:38.651Z,101513.03
2022-10-17T11:08:20.423Z,101515.53
2022-10-17T11:11:18.064Z,101515.63
2022-10-17T11:13:55.995Z,101495.78
2022-10-17T11:16:34.024Z,101508.91
2022-10-17T11:19:13.761Z,101492.19
2022-10-17T11:21:49.545Z,101507.56
2022-10-17T11:24:24.848Z,101498.25
2022-10-17T11:27:00.950Z,101506.81
2022-10-17T11:29:35.801Z,101461.81
2022-10-17T11:32:14.659Z,101506.75
2022-10-17T11:34:48.475Z,101511.63
2022-10-17T11:37:24.783Z,101488.84
2022-10-17T11:39:58.929Z,101501.47
2022-10-17T11:42:33.458Z,101453.41
2022-10-17T11:45:11.245Z,101511.94
2022-10-17T11:47:46.876Z,101507.84
2022-10-17T11:53:20.332Z,101503.69
2022-10-17T11:55:51.387Z,101489.00
2022-10-17T11:58:38.959Z,101506.41
2022-10-17T12:01:25.656Z,101468.50
2022-10-17T12:04:20.942Z,101488.03
2022-10-17T12:07:07.011Z,101444.47
2022-10-17T12:09:47.082Z,101438.13
2022-10-17T12:12:27.458Z,101482.88
2022-10-17T12:15:16.759Z,101473.75
2022-10-17T12:17:47.626Z,101470.97
2022-10-17T12:20:35.673Z,101463.75
2022-10-17T12:23:24.731Z,101465.50
2022-10-17T12:25:58.261Z,101461.75
2022-10-17T12:28:33.861Z,101464.88
2022-10-17T12:31:07.172Z,101456.44
2022-10-17T12:33:49.296Z,101468.44
2022-10-17T12:36:50.627Z,101459.44
2022-10-17T12:39:49.125Z,101463.00
2022-10-17T12:42:49.883Z,101462.34
2022-10-17T12:45:51.935Z,101462.34
2022-10-17T12:49:03.858Z,101458.09
2022-10-17T12:52:29.682Z,101470.81
2022-10-17T12:55:14.651Z,101466.81
2022-10-17T12:57:54.066Z,101467.00
2022-10-17T13:00:30.333Z,101464.38
2022-10-17T13:03:12.158Z,101458.13
2022-10-17T13:05:44.848Z,101461.88
2022-10-17T13:08:20.651Z,101457.44
2022-10-17T13:10:52.595Z,101450.47
2022-10-17T13:13:26.612Z,101444.44
2022-10-17T13:15:56.616Z,101455.72
2022-10-17T13:18:28.004Z,101461.56
2022-10-17T13:21:01.548Z,101454.00
2022-10-17T13:23:33.488Z,101451.66
2022-10-17T13:26:07.725Z,101453.66
2022-10-17T13:28:39.351Z,101452.63
2022-10-17T13:31:09.180Z,101454.38
2022-10-17T13:33:40.075Z,101456.19
2022-10-17T13:36:18.889Z,101452.63
2022-10-17T13:38:49.931Z,101424.81
2022-10-17T13:41:35.352Z,101442.88
2022-10-17T13:44:12.139Z,101448.66
2022-10-17T13:46:41.693Z,101453.72
2022-10-17T13:49:24.414Z,101393.94
2022-10-17T13:51:57.530Z,101442.84
2022-10-17T13:54:37.551Z,101446.41
2022-10-17T13:57:18.110Z,101445.28
2022-10-17T13:59:49.130Z,101447.00
2022-10-17T14:02:20.962Z,101446.06
2022-10-17T14:05:17.816Z,101452.25
2022-10-17T14:08:12.371Z,101342.03
2022-10-17T14:10:45.279Z,101445.44
2022-10-17T14:13:23.842Z,101386.44
2022-10-17T14:15:54.505Z,101428.13
2022-10-17T14:18:34.909Z,101443.88
2022-10-17T14:21:43.716Z,101440.38
2022-10-17T14:24:14.574Z,101445.78
2022-10-17T14:26:52.228Z,101435.06
2022-10-17T14:29:25.331Z,101438.72
2022-10-17T14:32:01.895Z,101433.75
2022-10-17T14:34:35.116Z,101443.00
2022-10-17T14:37:10.008Z,101438.91
2022-10-17T14:39:40.394Z,101434.09
2022-10-17T14:42:17.301Z,101433.88
2022-10-17T14:44:50.948Z,101428.81
2022-10-17T14:47:43.506Z,101428.91
2022-10-17T14:50:25.033Z,101418.00
2022-10-17T14:53:05.525Z,101428.22
2022-10-17T14:55:37.106Z,101432.31
2022-10-17T14:58:18.356Z,101426.50
2022-10-17T15:00:46.994Z,101439.53
2022-10-17T15:03:15.395Z,101437.44
2022-10-17T15:05:44.163Z,101445.09
2022-10-17T15:08:16.601Z,101378.31
2022-10-17T15:10:48.210Z,101435.34
2022-10-17T15:13:27.715Z,101435.78
2022-10-17T15:15:57.148Z,101436.28
2022-10-17T15:18:25.875Z,101442.03
2022-10-17T15:21:04.613Z,101440.53
2022-10-17T15:23:35.009Z,101446.19
2022-10-17T15:26:05.006Z,101443.78
2022-10-17T15:28:33.673Z,101440.59
2022-10-17T15:31:01.950Z,101439.06
2022-10-17T15:33:30.569Z,101438.44
2022-10-17T15:35:59.220Z,101443.22
2022-10-17T15:38:27.607Z,101330.44
2022-10-17T15:40:56.281Z,101447.38
2022-10-17T15:43:26.422Z,101391.09
2022-10-17T15:45:55.281Z,101455.19
2022-10-17T15:48:30.440Z,101447.63
2022-10-17T15:50:59.233Z,101448.94
2022-10-17T15:53:27.810Z,101442.16
2022-10-17T15:55:56.226Z,101440.03
2022-10-17T15:58:28.353Z,101443.03
2022-10-17T16:00:57.119Z,101437.88
2022-10-17T16:03:25.746Z,101433.56
2022-10-17T16:05:54.399Z,101428.53
2022-10-17T16:08:23.115Z,101433.34
2022-10-17T16:10:53.034Z,101438.34
2022-10-17T16:13:26.509Z,101432.66
2022-10-17T16:15:55.133Z,101440.28
2022-10-17T16:18:24.286Z,101437.19
2022-10-17T16:20:52.926Z,101447.38
2022-10-17T16:23:21.664Z,101438.66
2022-10-17T16:25:50.320Z,101439.88
2022-10-17T16:28:18.957Z,101440.91
2022-10-17T16:30:49.355Z,101444.66
2022-10-17T16:33:18.094Z,101446.94
2022-10-17T16:35:49.250Z,101457.91
2022-10-17T16:38:18.124Z,101464.22
2022-10-17T16:40:46.773Z,101423.06
2022-10-17T16:43:15.514Z,101462.59
2022-10-17T16:45:43.963Z,101465.88
2022-10-17T16:48:14.003Z,101477.75
2022-10-17T16:50:42.728Z,101472.53
2022-10-17T16:53:11.495Z,101483.38
2022-10-17T16:55:40.159Z,101468.56
2022-10-17T16:58:08.481Z,101483.25
2022-10-17T17:00:37.240Z,101476.28
2022-10-17T17:03:06.792Z,101490.56
2022-10-17T17:05:36.479Z,101492.31
2022-10-17T17:08:07.974Z,101488.03
2022-10-17T17:10:46.839Z,101478.63
2022-10-17T17:13:15.851Z,101489.94
2022-10-17T17:18:14.428Z,101496.53
2022-10-17T17:20:43.994Z,101483.16
2022-10-17T17:23:15.713Z,101493.75
2022-10-17T17:25:45.279Z,101488.38
2022-10-17T17:28:14.233Z,101491.13
2022-10-17T17:30:42.977Z,101491.50
2022-10-17T17:33:11.708Z,101491.53
2022-10-17T17:35:40.564Z,101493.53
2022-10-17T17:38:10.226Z,101472.34
2022-10-17T17:40:38.505Z,101494.41
2022-10-17T17:43:07.165Z,101487.63
2022-10-17T17:45:36.372Z,101487.56
2022-10-17T17:48:04.963Z,101482.81
2022-10-17T17:50:33.541Z,101484.88
2022-10-17T17:53:02.154Z,101477.38
2022-10-17T17:55:31.970Z,101479.59
2022-10-17T17:58:00.617Z,101476.16
2022-10-17T18:00:29.514Z,101493.22
2022-10-17T18:02:58.466Z,101485.63
2022-10-17T18:05:27.131Z,101490.19
2022-10-17T18:07:55.491Z,101494.28
2022-10-17T18:10:24.293Z,101488.44
2022-10-17T18:12:54.676Z,101493.63
2022-10-17T18:15:23.270Z,101478.38
2022-10-17T18:17:51.902Z,101480.38
2022-10-17T18:20:20.289Z,101472.72
2022-10-17T18:22:48.808Z,101476.03
2022-10-17T18:25:17.711Z,101475.59
2022-10-17T18:27:48.383Z,101481.19
2022-10-17T18:30:21.191Z,101484.06
2022-10-17T18:32:52.135Z,101460.94
2022-10-17T18:35:20.562Z,101476.56
2022-10-17T18:37:49.919Z,101464.53
2022-10-17T18:40:18.664Z,101484.34
2022-10-17T18:42:47.267Z,101476.16
2022-10-17T18:45:17.504Z,101417.31
2022-10-17T18:47:47.308Z,101481.69
2022-10-17T18:50:16.187Z,101480.25
2022-10-17T18:52:45.965Z,101486.59
2022-10-17T18:55:14.834Z,101480.56
2022-10-17T18:57:43.706Z,101479.88
2022-10-17T19:00:13.515Z,101452.13
2022-10-17T19:02:43.826Z,101484.69
2022-10-17T19:05:12.564Z,101483.09
2022-10-17T19:07:41.184Z,101474.44
2022-10-17T19:10:10.399Z,101267.16
2022-10-17T19:12:39.098Z,101478.28
2022-10-17T19:15:08.521Z,101473.06
2022-10-17T19:17:37.107Z,101474.91
2022-10-17T19:20:08.818Z,101479.41
2022-10-17T19:22:37.178Z,101384.09
2022-10-17T19:25:06.321Z,101481.47
2022-10-17T19:27:34.979Z,101478.91
2022-10-17T19:30:03.703Z,101485.09
2022-10-17T19:32:33.638Z,101480.56
2022-10-17T19:35:02.718Z,101487.84
2022-10-17T19:37:34.396Z,101487.09
2022-10-17T19:40:03.938Z,101495.13
2022-10-17T19:42:32.912Z,101497.94
2022-10-17T19:45:01.819Z,101493.63
2022-10-17T19:47:30.119Z,101478.03
2022-10-17T19:49:58.778Z,101504.25
2022-10-17T19:52:27.292Z,101512.28
2022-10-17T19:54:57.535Z,101510.50
2022-10-17T19:57:26.445Z,101506.94
2022-10-17T19:59:56.150Z,101509.63
2022-10-17T20:02:24.859Z,101507.88
2022-10-17T20:05:18.412Z,101523.94
2022-10-17T20:07:48.688Z,101516.78
2022-10-17T20:10:26.766Z,101520.28
2022-10-17T20:13:01.685Z,101519.59
2022-10-17T20:15:30.860Z,101517.03
2022-10-17T20:18:08.361Z,101517.88
2022-10-17T20:20:37.757Z,101518.09
2022-10-17T20:23:06.635Z,101517.31
2022-10-17T20:25:48.856Z,101521.81
2022-10-17T20:28:21.200Z,101497.91
2022-10-17T20:30:49.816Z,101520.91
2022-10-17T20:33:18.827Z,101520.88
2022-10-17T20:35:47.739Z,101516.41
2022-10-17T20:38:17.172Z,101518.22
2022-10-17T20:40:47.176Z,101417.72
2022-10-17T20:43:15.904Z,101526.41
2022-10-17T20:45:51.481Z,101523.75
2022-10-17T20:48:20.631Z,101521.19
2022-10-17T20:50:49.963Z,101529.34
2022-10-17T20:56:18.382Z,101487.41
2022-10-17T20:58:46.703Z,101532.22
2022-10-17T21:01:15.314Z,101526.91
2022-10-17T21:03:46.473Z,101535.81
2022-10-17T21:06:16.353Z,101537.72
2022-10-17T21:08:45.094Z,101487.88
2022-10-17T21:11:20.160Z,101517.72
2022-10-17T21:13:54.256Z,101536.13
2022-10-17T21:16:22.851Z,101538.03
2022-10-17T21:18:51.644Z,101531.91
2022-10-17T21:21:22.942Z,101500.31
2022-10-17T21:23:52.566Z,101535.53
2022-10-17T21:26:22.348Z,101543.59
2022-10-17T21:28:51.444Z,101536.50
2022-10-17T21:31:23.605Z,101444.47
2022-10-17T21:33:54.072Z,101432.97
2022-10-17T21:36:24.109Z,101545.47
2022-10-17T21:38:56.746Z,101491.09
2022-10-17T21:41:28.933Z,101541.22
2022-10-17T21:44:01.296Z,101451.88
2022-10-17T21:46:30.659Z,101534.34
2022-10-17T21:49:01.782Z,101436.97
2022-10-17T21:51:30.746Z,101536.19
2022-10-17T21:53:59.486Z,101536.25
2022-10-17T21:56:31.268Z,101506.53
2022-10-17T21:59:00.508Z,101537.28
2022-10-17T22:01:32.290Z,101542.69
2022-10-17T22:04:04.986Z,101546.16
2022-10-17T22:06:40.094Z,101539.97
2022-10-17T22:09:13.735Z,101541.75
2022-10-17T22:11:45.810Z,101540.94
2022-10-17T22:14:16.952Z,101546.19
2022-10-17T22:16:46.814Z,101521.09
2022-10-17T22:19:22.673Z,101536.81
2022-10-17T22:21:51.605Z,101552.59
2022-10-17T22:24:22.554Z,101528.94
2022-10-17T22:26:53.191Z,101543.75
2022-10-17T22:29:22.790Z,101545.53
2022-10-17T22:31:51.210Z,101549.16
2022-10-17T22:34:22.876Z,101460.75
2022-10-17T22:36:51.477Z,101549.28
2022-10-17T22:39:20.359Z,101554.66
2022-10-17T22:41:48.980Z,101550.22
2022-10-17T22:44:18.953Z,101560.81
2022-10-17T22:46:49.499Z,101554.53
2022-10-17T22:49:18.235Z,101553.75
2022-10-17T22:51:46.791Z,101557.31
2022-10-17T22:54:15.502Z,101555.56
2022-10-17T22:56:43.875Z,101556.38
2022-10-17T22:59:12.461Z,101550.06
2022-10-17T23:01:42.428Z,101552.69
2022-10-17T23:04:11.086Z,101562.44
2022-10-17T23:06:39.603Z,101555.38
2022-10-17T23:09:08.337Z,101554.53
2022-10-17T23:11:37.015Z,101553.72
2022-10-17T23:14:05.693Z,101552.88
2022-10-17T23:16:37.529Z,101551.19
2022-10-17T23:19:07.708Z,101552.09
2022-10-17T23:21:36.416Z,101551.25
2022-10-17T23:24:07.635Z,101554.81
2022-10-17T23:26:36.347Z,101552.13
2022-10-17T23:29:04.990Z,101553.00
2022-10-17T23:31:33.724Z,101555.66
2022-10-17T23:34:02.330Z,101556.53
2022-10-17T23:39:05.903Z,101562.78
2022-10-17T23:41:34.739Z,101566.44
2022-10-17T23:44:03.378Z,101559.41
2022-10-17T23:46:31.632Z,101562.06
2022-10-17T23:49:00.303Z,101562.09
2022-10-17T23:51:28.951Z,101556.88
2022-10-17T23:53:59.169Z,101571.97
2022-10-17T23:56:27.931Z,101561.38
2022-10-17T23:58:58.430Z,101572.09
